Time;durP1;ratioP1;P1;durP2;ratioP2;P2;SDS_P1;SDS_P2;PMS_P1;PMS_P2;Temp;Humidity;BMP_temperature;BMP_pressure;BME280_temperature;BME280_humidity;BME280_pressure;Samples;Min_cycle;Max_cycle;Signal;HPM_P1;HPM_P2
2021/11/05 00:03:41;;;;;;;2.60;1.67;;;;;;;5.24;85.65;96124.75;5327619;55;20113;-70
2021/11/05 00:08:43;;;;;;;1.63;1.52;;;;;;;5.03;86.56;96129.59;5327615;55;20114;-71
2021/11/05 00:13:46;;;;;;;1.50;1.40;;;;;;;4.98;86.37;96123.88;5327922;55;20288;-71
2021/11/05 00:18:48;;;;;;;1.85;1.75;;;;;;;4.89;86.89;96121.75;5327695;55;20559;-70
2021/11/05 00:23:50;;;;;;;1.80;1.70;;;;;;;4.95;86.11;96132.97;5328972;55;20127;-71
2021/11/05 00:28:53;;;;;;;1.60;1.48;;;;;;;4.92;85.90;96125.59;5327662;55;20573;-71
2021/11/05 00:33:55;;;;;;;2.08;1.90;;;;;;;4.96;85.71;96132.50;5327667;55;20131;-70
2021/11/05 00:38:57;;;;;;;1.73;1.63;;;;;;;4.96;85.72;96135.25;5327096;55;20582;-72
2021/11/05 00:43:59;;;;;;;1.75;1.65;;;;;;;4.82;86.16;96132.09;5327211;55;20712;-71
2021/11/05 00:49:02;;;;;;;3.22;1.50;;;;;;;4.65;86.96;96145.03;5326996;55;20109;-71
2021/11/05 00:54:04;;;;;;;1.92;1.75;;;;;;;4.58;87.73;96145.19;5327408;55;20113;-71
2021/11/05 00:59:07;;;;;;;2.58;2.38;;;;;;;4.48;87.89;96156.41;5326864;55;20117;-72
2021/11/05 01:04:09;;;;;;;1.98;1.80;;;;;;;4.23;88.77;96148.72;5327393;55;20140;-71
2021/11/05 01:09:11;;;;;;;1.60;1.50;;;;;;;4.25;89.38;96149.09;5326928;55;20115;-71
2021/11/05 01:14:14;;;;;;;2.72;1.67;;;;;;;3.96;90.51;96156.34;5327120;55;20929;-71
2021/11/05 01:19:16;;;;;;;1.33;1.33;;;;;;;4.05;90.95;96154.59;5326440;55;20126;-71
2021/11/05 01:24:19;;;;;;;1.60;1.50;;;;;;;4.22;89.78;96164.41;5326767;55;20122;-70
2021/11/05 01:29:21;;;;;;;1.60;1.50;;;;;;;4.20;89.89;96157.81;5326714;55;20112;-70
2021/11/05 01:34:23;;;;;;;2.30;1.90;;;;;;;4.30;88.39;96156.78;5327059;55;20123;-70
2021/11/05 01:39:26;;;;;;;2.15;1.60;;;;;;;4.35;87.89;96154.31;5326435;55;20136;-70
2021/11/05 01:44:28;;;;;;;1.75;1.65;;;;;;;4.33;87.58;96143.03;5326374;55;20123;-70
2021/11/05 01:49:31;;;;;;;1.88;1.77;;;;;;;4.31;87.75;96150.91;5324428;55;20198;-71
2021/11/05 01:54:33;;;;;;;1.85;1.75;;;;;;;4.32;88.05;96152.44;5319732;55;20113;-69
2021/11/05 01:59:37;;;;;;;2.80;2.08;;;;;;;4.41;87.86;96156.56;5326202;55;20719;-70
2021/11/05 02:04:40;;;;;;;2.00;1.80;;;;;;;4.34;88.08;96160.97;5326040;55;20122;-71
2021/11/05 02:09:43;;;;;;;1.90;1.50;;;;;;;4.30;88.43;96160.28;5325857;55;20127;-70
2021/11/05 02:14:46;;;;;;;1.70;1.60;;;;;;;4.20;88.79;96158.59;5326153;55;20126;-70
2021/11/05 02:19:49;;;;;;;2.30;2.10;;;;;;;4.04;89.69;96161.28;5325853;55;20131;-70
2021/11/05 02:24:52;;;;;;;2.40;2.20;;;;;;;4.11;89.52;96176.75;5326218;55;20113;-71
2021/11/05 02:29:56;;;;;;;1.70;1.60;;;;;;;4.02;90.24;96169.13;5326907;55;20564;-70
2021/11/05 02:34:58;;;;;;;2.55;2.35;;;;;;;4.12;89.66;96170.84;5329415;55;20126;-70
2021/11/05 02:40:01;;;;;;;2.10;1.85;;;;;;;4.07;89.31;96179.53;5329162;55;20126;-71
2021/11/05 02:45:04;;;;;;;1.80;1.70;;;;;;;4.06;89.86;96180.75;5329319;55;20117;-70
2021/11/05 02:50:10;;;;;;;1.70;1.60;;;;;;;3.89;90.44;96186.59;5328990;55;20671;-71
2021/11/05 02:55:14;;;;;;;1.67;1.58;;;;;;;3.88;91.17;96176.84;5328786;55;20235;-70
2021/11/05 03:00:17;;;;;;;1.67;1.58;;;;;;;3.93;90.28;96192.75;5328382;55;20109;-71
2021/11/05 03:05:19;;;;;;;1.77;1.67;;;;;;;3.84;90.55;96204.25;5328718;55;20131;-70
2021/11/05 03:10:22;;;;;;;1.70;1.60;;;;;;;3.87;90.47;96200.66;5328554;55;20683;-71
2021/11/05 03:15:24;;;;;;;2.33;1.98;;;;;;;3.67;91.46;96202.63;5328586;55;20113;-71
2021/11/05 03:20:27;;;;;;;1.58;1.50;;;;;;;3.77;90.66;96203.63;5328409;55;20670;-71
2021/11/05 03:25:29;;;;;;;4.53;2.20;;;;;;;3.76;90.76;96210.25;5328861;55;20117;-71
2021/11/05 03:30:32;;;;;;;1.77;1.67;;;;;;;3.80;90.60;96209.00;5332178;55;20113;-71
2021/11/05 03:35:34;;;;;;;1.77;1.67;;;;;;;3.84;90.49;96217.94;5328081;55;20131;-71
2021/11/05 03:40:37;;;;;;;2.28;2.08;;;;;;;3.94;90.35;96221.63;5328121;55;20122;-70
2021/11/05 03:45:39;;;;;;;2.22;2.03;;;;;;;4.01;89.43;96226.94;5327857;55;20114;-70
2021/11/05 03:50:42;;;;;;;2.20;2.00;;;;;;;3.79;90.58;96239.50;5328118;55;20158;-70
2021/11/05 03:55:44;;;;;;;3.05;1.95;;;;;;;3.92;89.72;96241.19;5323206;55;20109;-70
2021/11/05 04:00:47;;;;;;;2.05;1.85;;;;;;;3.76;90.21;96254.00;5324586;55;20166;-70
2021/11/05 04:05:50;;;;;;;1.70;1.60;;;;;;;3.58;91.69;96265.25;5327487;55;20551;-71
2021/11/05 04:10:52;;;;;;;1.98;1.83;;;;;;;3.46;93.19;96269.34;5328099;55;20121;-70
2021/11/05 04:15:55;;;;;;;3.22;2.00;;;;;;;3.44;92.90;96273.69;5327727;55;20723;-70
2021/11/05 04:20:57;;;;;;;2.53;2.33;;;;;;;3.44;92.88;96279.94;5329134;55;20126;-71
2021/11/05 04:26:01;;;;;;;1.83;1.73;;;;;;;3.38;93.12;96280.84;5328559;55;20122;-70
2021/11/05 04:31:03;;;;;;;1.80;1.70;;;;;;;3.32;93.83;96293.44;5327563;55;20290;-71
2021/11/05 04:36:07;;;;;;;1.92;1.83;;;;;;;3.34;93.95;96297.28;5327233;55;20667;-70
2021/11/05 04:41:10;;;;;;;2.35;2.15;;;;;;;3.35;94.57;96301.53;5325477;55;20126;-70
2021/11/05 04:46:13;;;;;;;1.83;1.70;;;;;;;3.26;94.27;96298.56;5326961;55;20122;-71
2021/11/05 04:51:15;;;;;;;1.67;1.58;;;;;;;3.35;93.74;96306.22;5327471;55;20117;-70
2021/11/05 04:56:18;;;;;;;2.10;1.90;;;;;;;3.21;94.46;96314.66;5326362;55;20122;-70
2021/11/05 05:01:20;;;;;;;1.60;1.50;;;;;;;3.06;94.50;96316.06;5327060;55;20157;-71
2021/11/05 05:06:23;;;;;;;1.58;1.48;;;;;;;2.86;94.78;96314.03;5326509;55;20238;-71
2021/11/05 05:11:25;;;;;;;1.40;1.30;;;;;;;2.74;94.69;96316.53;5326954;55;20161;-71
2021/11/05 05:16:28;;;;;;;1.55;1.45;;;;;;;2.55;95.15;96331.59;5326609;55;20118;-71
2021/11/05 05:21:30;;;;;;;1.15;1.15;;;;;;;2.60;95.60;96335.84;5326594;55;20113;-72
2021/11/05 05:26:32;;;;;;;1.60;1.50;;;;;;;2.59;95.44;96335.06;5326452;55;20122;-69
2021/11/05 05:31:35;;;;;;;1.60;1.50;;;;;;;2.49;95.64;96341.41;5326821;55;20118;-71
2021/11/05 05:36:37;;;;;;;1.25;1.25;;;;;;;2.60;95.44;96352.94;5326214;55;20153;-72
2021/11/05 05:41:39;;;;;;;1.50;1.40;;;;;;;2.76;95.15;96363.25;5326731;55;20802;-71
2021/11/05 05:46:42;;;;;;;5.18;1.60;;;;;;;2.72;94.51;96365.28;5326806;55;20131;-71
2021/11/05 05:51:44;;;;;;;1.40;1.33;;;;;;;2.37;95.49;96369.22;5326283;55;20122;-71
2021/11/05 05:56:47;;;;;;;1.30;1.30;;;;;;;2.46;95.85;96387.81;5325953;55;20693;-71
2021/11/05 06:01:49;;;;;;;1.20;1.20;;;;;;;2.66;96.36;96400.44;5326096;55;20663;-71
2021/11/05 06:06:52;;;;;;;1.50;1.40;;;;;;;2.84;96.13;96409.16;5325968;55;20126;-70
2021/11/05 06:11:55;;;;;;;2.50;2.08;;;;;;;3.05;95.83;96401.88;5326012;55;20117;-71
2021/11/05 06:16:57;;;;;;;1.30;1.13;;;;;;;3.11;95.09;96417.38;5325581;55;20127;-71
2021/11/05 06:22:00;;;;;;;1.55;1.45;;;;;;;2.97;94.93;96428.47;5325081;55;20131;-70
2021/11/05 06:27:02;;;;;;;1.35;1.25;;;;;;;2.86;95.52;96431.34;5325876;55;20101;-70
2021/11/05 06:32:05;;;;;;;7.72;1.50;;;;;;;2.76;95.18;96440.44;5325597;55;20904;-71
2021/11/05 06:37:08;;;;;;;1.20;1.20;;;;;;;2.58;95.22;96444.56;5331995;55;20109;-71
2021/11/05 06:42:13;;;;;;;1.45;1.35;;;;;;;2.41;95.57;96451.75;5324672;55;20109;-70
2021/11/05 06:47:15;;;;;;;1.20;1.10;;;;;;;2.41;95.49;96450.97;5325301;55;20109;-70
2021/11/05 06:52:18;;;;;;;1.50;1.40;;;;;;;2.46;95.76;96464.19;5325333;55;20101;-71
2021/11/05 06:57:20;;;;;;;1.30;1.20;;;;;;;2.65;96.26;96483.44;5325130;55;20135;-70
2021/11/05 07:02:23;;;;;;;1.25;1.23;;;;;;;2.66;95.77;96490.47;5325283;55;20131;-71
2021/11/05 07:07:26;;;;;;;1.42;1.33;;;;;;;2.75;95.82;96500.88;5325306;55;20118;-71
2021/11/05 07:12:28;;;;;;;1.60;1.20;;;;;;;2.88;95.53;96507.34;5325070;55;20645;-72
2021/11/05 07:17:30;;;;;;;1.63;1.50;;;;;;;3.07;95.15;96509.47;5326136;55;20109;-70
2021/11/05 07:22:36;;;;;;;1.20;1.17;;;;;;;3.34;94.95;96509.53;5328388;55;20127;-70
2021/11/05 07:27:40;;;;;;;2.88;1.23;;;;;;;3.48;94.94;96523.00;5328235;55;20292;-71
2021/11/05 07:32:46;;;;;;;1.52;1.42;;;;;;;3.69;94.39;96527.41;5328342;55;20287;-71
2021/11/05 07:37:49;;;;;;;1.48;1.38;;;;;;;3.94;94.86;96528.56;5328028;55;20135;-71
2021/11/05 07:42:51;;;;;;;2.15;1.95;;;;;;;4.34;93.82;96545.91;5328175;55;20122;-71
2021/11/05 07:47:56;;;;;;;2.15;1.98;;;;;;;4.80;92.25;96551.34;5327901;55;20131;-70
2021/11/05 07:52:58;;;;;;;5.45;3.15;;;;;;;5.26;90.52;96564.19;5328012;55;20581;-71
2021/11/05 07:58:00;;;;;;;3.50;3.08;;;;;;;5.63;88.30;96574.00;5334607;55;20112;-70
2021/11/05 08:03:03;;;;;;;2.75;2.53;;;;;;;5.91;86.93;96576.16;5337565;55;20126;-71
2021/11/05 08:08:05;;;;;;;2.80;2.60;;;;;;;6.13;86.74;96587.44;5338096;55;20126;-72
2021/11/05 08:13:08;;;;;;;3.65;2.95;;;;;;;6.38;85.95;96599.38;5336831;55;20136;-71
2021/11/05 08:18:10;;;;;;;4.15;3.45;;;;;;;6.67;85.22;96595.97;5337121;55;20164;-71
2021/11/05 08:23:17;;;;;;;2.95;2.60;;;;;;;6.79;83.47;96620.75;5336413;55;20171;-71
2021/11/05 08:28:20;;;;;;;5.20;2.40;;;;;;;7.23;83.52;96641.22;5347100;55;20652;-72
2021/11/05 08:33:23;;;;;;;3.97;3.13;;;;;;;7.56;80.75;96647.41;5339919;55;20108;-71
2021/11/05 08:38:25;;;;;;;3.22;2.92;;;;;;;7.61;79.19;96655.13;5332815;55;20113;-71
2021/11/05 08:43:31;;;;;;;3.65;3.22;;;;;;;7.94;78.84;96665.56;5325256;55;20166;-71
2021/11/05 08:48:34;;;;;;;3.22;2.70;;;;;;;8.13;76.50;96660.31;5326461;55;20153;-71
2021/11/05 08:53:38;;;;;;;3.80;3.20;;;;;;;7.89;77.22;96668.09;5326813;55;20127;-71
2021/11/05 08:58:41;;;;;;;2.92;2.72;;;;;;;8.06;78.07;96677.81;5326719;55;20096;-71
2021/11/05 09:03:43;;;;;;;4.57;2.55;;;;;;;8.08;76.46;96682.88;5329269;55;20144;-71
2021/11/05 09:08:48;;;;;;;6.57;3.20;;;;;;;8.30;76.82;96692.13;5355960;55;20108;-70
2021/11/05 09:13:50;;;;;;;3.95;2.80;;;;;;;8.49;76.08;96704.91;5342424;55;20126;-70
2021/11/05 09:18:53;;;;;;;2.83;2.63;;;;;;;8.63;73.48;96705.25;5345438;55;20118;-70
2021/11/05 09:23:55;;;;;;;2.95;2.58;;;;;;;9.05;72.12;96707.88;5326220;55;20126;-71
2021/11/05 09:28:59;;;;;;;8.25;2.97;;;;;;;9.21;69.72;96713.25;5324257;55;20104;-72
2021/11/05 09:34:01;;;;;;;4.47;3.08;;;;;;;9.68;71.76;96716.78;5336082;55;20573;-70
2021/11/05 09:39:05;;;;;;;2.70;2.50;;;;;;;9.74;68.30;96726.06;5327782;55;20114;-70
2021/11/05 09:44:07;;;;;;;4.38;2.80;;;;;;;9.65;70.24;96731.50;5336534;55;20126;-71
2021/11/05 09:49:10;;;;;;;5.45;2.47;;;;;;;9.85;69.23;96739.47;5354137;55;20120;-71
2021/11/05 09:54:18;;;;;;;2.45;2.28;;;;;;;9.44;69.03;96740.47;5327426;55;20136;-71
2021/11/05 09:59:20;;;;;;;2.60;2.40;;;;;;;9.98;68.38;96740.97;5325904;55;20667;-70
2021/11/05 10:04:23;;;;;;;2.88;2.60;;;;;;;10.23;65.43;96744.88;5326099;55;20724;-71
2021/11/05 10:09:33;;;;;;;2.33;1.95;;;;;;;10.80;65.91;96739.56;5326035;55;20210;-72
2021/11/05 10:14:36;;;;;;;2.30;2.05;;;;;;;10.69;65.81;96739.19;5326261;55;20114;-71
2021/11/05 10:19:50;;;;;;;2.15;2.05;;;;;;;10.19;66.76;96733.97;5326666;55;20189;-71
2021/11/05 10:25:26;;;;;;;2.28;2.10;;;;;;;10.14;67.54;96740.06;5325456;55;20692;-71
2021/11/05 10:30:30;;;;;;;2.00;1.87;;;;;;;9.47;68.10;96747.09;5325149;55;20230;-71
2021/11/05 10:35:33;;;;;;;2.28;1.85;;;;;;;9.03;71.75;96749.69;5325016;55;20581;-70
2021/11/05 10:40:41;;;;;;;3.28;2.28;;;;;;;8.97;73.08;96750.69;5325786;55;20122;-71
2021/11/05 10:45:47;;;;;;;1.73;1.63;;;;;;;8.64;73.28;96747.34;5325162;55;20153;-71
2021/11/05 10:51:03;;;;;;;2.67;2.40;;;;;;;9.17;71.17;96743.72;5325418;55;20702;-71
2021/11/05 10:56:08;;;;;;;1.70;1.60;;;;;;;9.27;71.00;96747.34;5328757;55;20586;-71
2021/11/05 11:01:15;;;;;;;2.20;2.10;;;;;;;9.11;70.60;96753.75;5329085;55;20113;-71
2021/11/05 11:06:22;;;;;;;2.08;1.70;;;;;;;10.32;67.97;96745.72;5328447;55;20598;-71
2021/11/05 11:11:40;;;;;;;2.15;1.85;;;;;;;10.72;67.94;96754.84;5328389;55;20118;-70
2021/11/05 11:17:01;;;;;;;1.57;1.47;;;;;;;10.74;64.66;96755.16;5328447;55;20122;-71
2021/11/05 11:22:09;;;;;;;1.70;1.60;;;;;;;10.25;65.47;96748.72;5328199;55;20701;-72
2021/11/05 11:27:11;;;;;;;2.20;1.88;;;;;;;10.29;66.60;96757.66;5326756;55;20118;-70
2021/11/05 11:32:27;;;;;;;1.73;1.63;;;;;;;10.31;66.47;96763.50;5331317;55;20230;-71
2021/11/05 11:37:33;;;;;;;1.52;1.42;;;;;;;9.85;65.47;96772.59;5323939;55;20277;-71
2021/11/05 11:42:36;;;;;;;1.60;1.50;;;;;;;9.99;65.92;96758.31;5322462;55;22313;-71
2021/11/05 11:47:53;;;;;;;1.80;1.70;;;;;;;10.49;66.48;96765.63;5336958;55;20113;-70
2021/11/05 11:53:04;;;;;;;1.65;1.55;;;;;;;10.69;65.47;96768.81;5342632;55;20117;-71
2021/11/05 11:58:14;;;;;;;1.75;1.65;;;;;;;10.35;63.68;96774.44;5344589;55;20131;-70
2021/11/05 12:03:26;;;;;;;4.30;1.60;;;;;;;10.12;65.78;96769.31;5328311;55;20145;-72
2021/11/05 12:08:43;;;;;;;1.80;1.70;;;;;;;10.68;64.72;96778.31;5326298;55;20638;-71
2021/11/05 12:13:55;;;;;;;2.35;1.83;;;;;;;10.86;64.29;96774.88;5330851;55;20126;-71
2021/11/05 12:19:02;;;;;;;3.67;1.50;;;;;;;10.20;65.29;96776.91;5327407;55;20199;-72
2021/11/05 12:24:14;;;;;;;1.27;1.17;;;;;;;10.87;60.79;96793.81;5332527;55;20116;-71
2021/11/05 12:29:32;;;;;;;1.10;1.10;;;;;;;11.81;58.07;96780.16;5338917;55;20100;-70
2021/11/05 12:34:39;;;;;;;1.27;1.17;;;;;;;12.76;56.74;96784.31;5331478;55;20113;-71
2021/11/05 12:39:41;;;;;;;0.90;0.90;;;;;;;13.24;55.01;96778.97;5332434;55;20595;-71
2021/11/05 12:45:03;;;;;;;1.30;1.25;;;;;;;11.66;58.31;96776.44;5332117;55;20684;-70
2021/11/05 12:50:05;;;;;;;0.70;0.70;;;;;;;10.92;60.66;96778.63;5331537;55;20113;-70
2021/11/05 12:55:08;;;;;;;0.85;0.85;;;;;;;10.54;61.28;96790.66;5339098;55;20109;-72
2021/11/05 13:00:11;;;;;;;1.10;1.00;;;;;;;9.92;61.84;96797.22;5338543;55;20114;-71
2021/11/05 13:05:14;;;;;;;0.82;0.82;;;;;;;9.69;63.84;96798.38;5332254;55;20170;-71
2021/11/05 13:10:42;;;;;;;0.80;0.80;;;;;;;9.72;64.43;96808.53;5325669;55;20127;-71
2021/11/05 13:15:47;;;;;;;0.90;0.90;;;;;;;9.79;63.98;96805.50;5322025;55;20315;-71
2021/11/05 13:20:49;;;;;;;0.60;0.60;;;;;;;9.71;65.47;96818.00;5326794;55;20581;-71
2021/11/05 13:25:51;;;;;;;1.00;1.00;;;;;;;9.20;71.72;96831.03;5326818;55;20132;-72
2021/11/05 13:30:57;;;;;;;1.15;1.15;;;;;;;9.76;70.76;96824.97;5327853;55;20112;-72
2021/11/05 13:35:59;;;;;;;1.50;1.40;;;;;;;9.31;72.15;96830.75;5331363;55;20590;-72
2021/11/05 13:41:06;;;;;;;1.58;1.48;;;;;;;8.93;74.95;96829.94;5326645;55;20653;-72
2021/11/05 13:46:14;;;;;;;1.13;1.13;;;;;;;8.93;73.14;96846.47;5326504;55;20127;-71
2021/11/05 13:51:19;;;;;;;1.30;1.30;;;;;;;9.17;74.46;96845.72;5326033;55;20127;-71
2021/11/05 13:56:33;;;;;;;1.58;1.48;;;;;;;9.18;73.48;96850.03;5328241;55;20114;-72
2021/11/05 14:01:35;;;;;;;1.67;1.58;;;;;;;9.29;72.49;96855.97;5336922;55;20134;-72
2021/11/05 14:06:40;;;;;;;0.80;0.80;;;;;;;9.35;73.92;96857.00;5332691;55;20118;-71
2021/11/05 14:11:49;;;;;;;0.75;0.75;;;;;;;9.31;73.64;96863.84;5326891;55;20113;-71
2021/11/05 14:16:53;;;;;;;;;;;;;;;9.63;71.90;96869.13;5327022;55;20167;-71
2021/11/05 14:21:59;;;;;;;0.82;0.82;;;;;;;9.58;74.53;96875.19;5327943;55;20286;-71
2021/11/05 14:27:10;;;;;;;1.17;1.17;;;;;;;9.34;73.81;96885.00;5312102;55;20114;-71
2021/11/05 14:32:33;;;;;;;1.02;0.95;;;;;;;9.45;74.20;96884.69;5324565;55;20670;-72
2021/11/05 14:37:51;;;;;;;0.93;0.93;;;;;;;9.27;74.38;96880.47;5321239;55;20131;-72
2021/11/05 14:42:57;;;;;;;0.90;0.90;;;;;;;9.47;77.48;96888.56;5328594;55;20122;-71
2021/11/05 14:48:06;;;;;;;1.10;1.02;;;;;;;9.37;75.85;96884.91;5326257;55;20157;-71
2021/11/05 14:53:09;;;;;;;2.00;1.38;;;;;;;9.29;77.67;96897.34;5327735;55;20096;-70
2021/11/05 14:58:16;;;;;;;1.35;1.27;;;;;;;9.22;77.31;96888.53;5320681;55;22266;-70
2021/11/05 15:03:30;;;;;;;1.30;1.27;;;;;;;9.30;77.87;96895.38;5327217;55;20120;-71
2021/11/05 15:08:33;;;;;;;1.77;1.67;;;;;;;9.28;75.86;96908.81;5327559;55;20118;-70
2021/11/05 15:13:37;;;;;;;2.60;2.40;;;;;;;8.77;77.09;96907.16;5326967;55;20130;-70
2021/11/05 15:18:40;;;;;;;3.97;2.45;;;;;;;8.72;78.05;96910.44;5325309;55;20118;-70
2021/11/05 15:23:43;;;;;;;2.78;2.53;;;;;;;8.33;79.56;96926.03;5326825;55;20109;-71
2021/11/05 15:28:46;;;;;;;2.20;2.00;;;;;;;8.24;79.96;96930.56;5326676;55;20161;-71
2021/11/05 15:33:49;;;;;;;2.63;2.25;;;;;;;8.11;80.38;96935.25;5328027;55;20136;-70
2021/11/05 15:38:52;;;;;;;2.78;2.30;;;;;;;7.88;82.71;96941.69;5326197;55;20573;-71
2021/11/05 15:43:54;;;;;;;2.42;2.20;;;;;;;7.93;83.37;96949.44;5325434;55;20223;-70
2021/11/05 15:48:57;;;;;;;3.28;2.80;;;;;;;7.76;84.84;96956.91;5326430;55;20126;-71
2021/11/05 15:53:59;;;;;;;3.15;2.50;;;;;;;7.76;85.32;96961.63;5325686;55;20123;-71
2021/11/05 15:59:01;;;;;;;2.55;2.35;;;;;;;7.76;85.09;96973.41;5326493;55;20658;-71
2021/11/05 16:04:04;;;;;;;3.13;2.78;;;;;;;7.81;84.91;96967.41;5326181;55;20131;-72
2021/11/05 16:09:06;;;;;;;2.42;2.20;;;;;;;7.89;84.64;96984.53;5344582;55;20594;-70
2021/11/05 16:14:15;;;;;;;2.70;2.50;;;;;;;7.98;85.68;96992.97;5320029;55;20112;-70
2021/11/05 16:19:18;;;;;;;5.25;3.10;;;;;;;7.98;87.12;96999.22;5337738;55;20121;-71
2021/11/05 16:24:23;;;;;;;3.05;2.72;;;;;;;8.00;87.77;96998.03;5337335;55;20117;-70
2021/11/05 16:29:26;;;;;;;2.22;1.92;;;;;;;7.92;88.77;97009.19;5332359;55;20122;-73
2021/11/05 16:34:30;;;;;;;2.55;2.20;;;;;;;7.82;89.97;97017.69;5325200;55;20113;-71
2021/11/05 16:39:34;;;;;;;2.33;2.10;;;;;;;7.78;89.98;97025.25;5326653;55;20113;-71
2021/11/05 16:44:37;;;;;;;2.42;2.22;;;;;;;7.74;90.73;97030.03;5332484;55;20126;-72
2021/11/05 16:49:39;;;;;;;2.40;2.20;;;;;;;7.72;90.86;97029.69;5331582;55;20108;-70
2021/11/05 16:54:42;;;;;;;2.47;2.28;;;;;;;7.80;90.77;97028.38;5340343;55;20206;-72
2021/11/05 16:59:45;;;;;;;2.53;2.33;;;;;;;7.70;91.24;97043.09;5326461;55;20988;-71
2021/11/05 17:04:47;;;;;;;2.05;1.77;;;;;;;7.69;91.15;97049.81;5326393;55;20139;-72
2021/11/05 17:09:50;;;;;;;2.22;1.88;;;;;;;7.61;90.97;97060.19;5327976;55;20538;-70
2021/11/05 17:14:52;;;;;;;3.22;2.00;;;;;;;7.58;91.39;97050.03;5328187;55;20122;-71
2021/11/05 17:19:55;;;;;;;2.47;2.28;;;;;;;7.57;91.16;97054.00;5337399;55;20126;-72
2021/11/05 17:24:59;;;;;;;2.88;2.63;;;;;;;7.62;92.18;97060.97;5326068;55;20118;-71
2021/11/05 17:30:02;;;;;;;2.92;2.40;;;;;;;7.62;92.29;97066.47;5331409;55;20086;-72
2021/11/05 17:35:06;;;;;;;2.28;2.05;;;;;;;7.59;93.20;97067.31;5325660;55;20131;-71
2021/11/05 17:40:11;;;;;;;1.73;1.63;;;;;;;7.62;93.43;97080.22;5323922;55;20660;-72
2021/11/05 17:45:16;;;;;;;1.67;1.58;;;;;;;7.58;93.82;97085.78;5323627;55;20189;-71
2021/11/05 17:50:18;;;;;;;1.70;1.60;;;;;;;7.53;93.81;97085.53;5325862;55;20109;-71
2021/11/05 17:55:22;;;;;;;2.45;1.67;;;;;;;7.50;93.81;97092.63;5330278;55;20126;-71
2021/11/05 18:00:38;;;;;;;1.88;1.77;;;;;;;7.54;94.02;97096.09;5328987;55;20117;-72
2021/11/05 18:05:43;;;;;;;2.13;1.73;;;;;;;7.54;93.98;97106.31;5330397;55;20122;-71
2021/11/05 18:10:46;;;;;;;2.55;2.33;;;;;;;7.49;94.19;97112.28;5338700;55;20164;-72
2021/11/05 18:15:51;;;;;;;2.03;1.90;;;;;;;7.44;93.95;97110.06;5335521;55;20113;-71
2021/11/05 18:20:54;;;;;;;2.40;2.20;;;;;;;7.43;94.00;97114.78;5326740;55;20580;-72
2021/11/05 18:25:57;;;;;;;2.00;1.90;;;;;;;7.48;93.94;97127.25;5334698;55;20135;-72
2021/11/05 18:31:00;;;;;;;3.90;1.92;;;;;;;7.37;94.80;97126.69;5335324;55;20157;-71
2021/11/05 18:36:02;;;;;;;1.98;1.88;;;;;;;7.34;95.05;97131.06;5323666;55;20152;-71
2021/11/05 18:41:05;;;;;;;2.10;1.90;;;;;;;7.27;95.07;97135.91;5326362;55;20113;-71
2021/11/05 18:46:08;;;;;;;6.55;2.28;;;;;;;7.05;95.65;97144.53;5326907;55;20135;-71
2021/11/05 18:51:11;;;;;;;2.72;2.30;;;;;;;6.72;96.36;97141.94;5327918;55;20109;-71
2021/11/05 18:56:14;;;;;;;3.42;2.70;;;;;;;6.46;96.58;97141.56;5323755;55;20653;-71
2021/11/05 19:01:16;;;;;;;2.72;2.50;;;;;;;6.33;98.17;97153.53;5329077;55;20104;-71
2021/11/05 19:29:43;;;;;;;6.57;3.78;;;;;;;5.92;99.59;97175.63;5244284;56;20673;-71
2021/11/05 19:34:45;;;;;;;3.65;3.20;;;;;;;6.00;99.47;97182.59;5237874;56;20125;-69
2021/11/05 19:39:48;;;;;;;2.80;2.28;;;;;;;5.99;99.02;97178.31;5240698;56;20116;-69
2021/11/05 19:44:50;;;;;;;2.17;1.98;;;;;;;5.91;99.05;97174.06;5242185;56;20168;-70
2021/11/05 19:49:54;;;;;;;3.85;2.22;;;;;;;5.88;99.32;97191.34;5254314;56;20112;-70
2021/11/05 19:55:15;;;;;;;2.40;2.20;;;;;;;5.71;98.87;97178.59;5317676;45;20135;-70
2021/11/05 20:00:21;;;;;;;2.40;2.08;;;;;;;6.02;98.24;97215.09;5197090;57;20128;-69
2021/11/05 20:05:25;;;;;;;2.40;2.20;;;;;;;5.99;98.55;97213.97;5216287;56;20145;-69
2021/11/05 20:10:28;;;;;;;2.20;2.00;;;;;;;5.92;98.77;97219.53;5213895;56;20113;-69
2021/11/05 20:15:31;;;;;;;1.88;1.77;;;;;;;5.97;98.83;97226.53;5213681;56;20660;-69
2021/11/05 20:20:34;;;;;;;2.35;2.15;;;;;;;5.99;98.97;97232.38;5222454;56;20219;-70
2021/11/05 20:25:39;;;;;;;3.53;2.20;;;;;;;6.03;99.12;97239.38;5222144;56;20607;-70
2021/11/05 20:30:43;;;;;;;2.53;2.33;;;;;;;5.93;99.35;97244.97;5222555;56;20658;-69
2021/11/05 20:35:49;;;;;;;2.65;2.42;;;;;;;5.93;100.00;97251.25;5213406;56;20126;-69
2021/11/05 20:40:53;;;;;;;3.03;2.72;;;;;;;5.98;100.00;97247.28;5222661;56;20126;-69
2021/11/05 20:45:57;;;;;;;3.00;2.70;;;;;;;6.00;99.76;97264.09;5222028;56;20127;-70
2021/11/05 20:51:03;;;;;;;2.83;2.63;;;;;;;6.08;99.89;97271.06;5221729;56;20180;-70
2021/11/05 20:56:09;;;;;;;2.88;2.60;;;;;;;6.21;99.47;97277.59;5223477;56;20678;-70
2021/11/05 21:01:11;;;;;;;2.80;2.60;;;;;;;6.22;99.27;97279.91;5224650;56;20135;-74
2021/11/05 21:06:14;;;;;;;3.13;2.38;;;;;;;6.24;99.35;97282.25;5219506;56;20145;-70
2021/11/05 21:11:16;;;;;;;2.53;2.28;;;;;;;6.26;98.54;97288.91;5213183;56;20157;-70
2021/11/05 21:16:18;;;;;;;3.30;2.53;;;;;;;6.29;98.29;97288.06;5221196;56;20109;-70
2021/11/05 21:21:21;;;;;;;3.58;2.90;;;;;;;6.24;98.19;97288.50;5221180;56;20162;-70
2021/11/05 21:26:23;;;;;;;4.93;2.47;;;;;;;6.16;99.21;97294.50;5219288;56;20126;-70
2021/11/05 21:31:26;;;;;;;3.15;2.78;;;;;;;6.22;99.42;97298.38;5204929;56;20217;-70
2021/11/05 21:36:49;;;;;;;4.50;2.15;;;;;;;6.33;98.53;97305.25;5218729;56;20126;-69
2021/11/05 21:41:51;;;;;;;3.03;2.50;;;;;;;6.37;98.07;97305.22;5219947;56;20118;-70
2021/11/05 21:46:54;;;;;;;2.85;2.22;;;;;;;6.35;98.44;97305.66;5217827;56;20596;-70
2021/11/05 21:51:56;;;;;;;3.03;2.70;;;;;;;6.37;98.74;97317.00;5219907;56;20117;-70
2021/11/05 21:56:59;;;;;;;3.42;3.10;;;;;;;6.39;98.31;97311.09;5219450;56;20140;-70
2021/11/05 22:02:02;;;;;;;4.10;3.35;;;;;;;6.45;98.25;97317.66;5219337;56;20126;-70
2021/11/05 22:07:04;;;;;;;3.15;2.80;;;;;;;6.37;98.08;97321.69;5219197;56;20135;-70
2021/11/05 22:12:08;;;;;;;3.88;3.30;;;;;;;6.39;98.24;97322.06;5219205;56;20109;-70
2021/11/05 22:17:10;;;;;;;3.72;3.17;;;;;;;6.38;98.40;97320.50;5218776;56;20117;-71
2021/11/05 22:22:13;;;;;;;4.63;3.25;;;;;;;6.39;98.19;97324.81;5220100;56;20126;-70
2021/11/05 22:27:16;;;;;;;3.40;3.10;;;;;;;6.37;98.29;97336.22;5219871;56;20131;-69
2021/11/05 22:32:20;;;;;;;3.35;3.03;;;;;;;6.37;98.27;97336.22;5219607;56;20225;-67
2021/11/05 22:37:22;;;;;;;4.85;3.40;;;;;;;6.33;98.31;97337.44;5214832;56;20136;-69
2021/11/05 22:42:25;;;;;;;7.53;3.63;;;;;;;6.26;98.73;97346.53;5199497;56;20602;-69
2021/11/05 22:47:28;;;;;;;4.97;4.03;;;;;;;6.33;98.78;97345.69;5200575;56;20132;-69
2021/11/05 22:52:30;;;;;;;7.30;5.20;;;;;;;6.33;97.58;97346.44;5203071;56;20171;-69
2021/11/05 22:57:32;;;;;;;5.43;4.40;;;;;;;6.47;97.52;97345.50;5212748;56;20122;-69
2021/11/05 23:02:35;;;;;;;3.92;3.63;;;;;;;6.48;97.60;97353.34;5222636;56;20646;-68
2021/11/05 23:07:37;;;;;;;4.68;3.85;;;;;;;6.47;97.30;97342.75;5222232;56;20135;-69
2021/11/05 23:12:39;;;;;;;5.05;3.55;;;;;;;6.46;97.17;97347.47;5222503;56;20127;-69
2021/11/05 23:17:42;;;;;;;4.60;3.95;;;;;;;6.44;97.26;97351.81;5222262;56;20131;-69
2021/11/05 23:22:44;;;;;;;5.63;3.75;;;;;;;6.42;97.46;97354.19;5222360;56;20118;-69
2021/11/05 23:27:46;;;;;;;8.05;3.83;;;;;;;6.38;97.05;97354.22;5211687;56;20654;-69
2021/11/05 23:32:51;;;;;;;5.90;3.53;;;;;;;6.44;96.65;97360.06;5222060;56;20174;-69
2021/11/05 23:37:53;;;;;;;6.38;4.00;;;;;;;6.44;96.76;97346.34;5222154;56;20123;-69
2021/11/05 23:42:55;;;;;;;3.42;3.03;;;;;;;6.48;96.72;97356.09;5222208;56;20654;-69
2021/11/05 23:47:59;;;;;;;5.78;4.07;;;;;;;6.42;96.69;97348.72;5221722;56;20613;-69
2021/11/05 23:53:02;;;;;;;4.22;3.67;;;;;;;6.45;96.94;97358.84;5221668;56;20114;-69
2021/11/05 23:58:05;;;;;;;3.90;3.00;;;;;;;6.41;97.24;97363.63;5211623;56;20127;-69
